Time;durP1;ratioP1;P1;durP2;ratioP2;P2;SDS_P1;SDS_P2;PMS_P1;PMS_P2;Temp;Humidity;BMP_temperature;BMP_pressure;BME280_temperature;BME280_humidity;BME280_pressure;Samples;Min_cycle;Max_cycle;Signal;HPM_P1;HPM_P2
2021/04/02 00:00:21;;;;;;;12.38;9.05;;;5.60;99.90;;;;;;5088181;28;20025;-75
2021/04/02 00:02:47;;;;;;;19.83;7.80;;;5.70;99.90;;;;;;5081876;28;20025;-73
2021/04/02 00:05:15;;;;;;;16.02;8.77;;;5.60;99.90;;;;;;5087827;28;20063;-72
2021/04/02 00:07:42;;;;;;;12.77;6.95;;;5.50;99.90;;;;;;5075793;28;20024;-75
2021/04/02 00:10:18;;;;;;;14.07;7.43;;;5.50;99.90;;;;;;5072057;28;20085;-73
2021/04/02 00:12:45;;;;;;;18.10;7.55;;;5.40;99.90;;;;;;5071470;28;20029;-74
2021/04/02 00:15:18;;;;;;;11.82;7.57;;;5.40;99.90;;;;;;5072763;28;20024;-74
2021/04/02 00:17:44;;;;;;;15.35;7.68;;;5.50;99.90;;;;;;5070489;28;20501;-77
2021/04/02 00:20:14;;;;;;;12.63;8.05;;;5.40;99.90;;;;;;5071439;28;20052;-73
2021/04/02 00:22:41;;;;;;;14.98;7.40;;;5.30;99.90;;;;;;5070763;28;20016;-74
2021/04/02 00:25:08;;;;;;;14.95;7.15;;;5.30;99.90;;;;;;5063993;28;20039;-74
2021/04/02 00:27:34;;;;;;;14.40;6.97;;;5.30;99.90;;;;;;5056186;28;20031;-75
2021/04/02 00:30:11;;;;;;;12.63;7.32;;;5.40;99.90;;;;;;5070223;28;20021;-75
2021/04/02 00:32:36;;;;;;;15.90;7.97;;;5.40;99.90;;;;;;5070014;28;20516;-73
2021/04/02 00:35:02;;;;;;;13.02;7.65;;;5.30;99.90;;;;;;5080545;28;20071;-72
2021/04/02 00:37:28;;;;;;;12.18;8.65;;;5.30;99.90;;;;;;5075959;28;20031;-75
2021/04/02 00:39:54;;;;;;;9.50;7.80;;;5.30;99.90;;;;;;5073088;28;20032;-70
2021/04/02 00:42:20;;;;;;;19.02;7.90;;;5.30;99.90;;;;;;5074848;28;20033;-76
2021/04/02 00:44:45;;;;;;;14.80;8.48;;;5.20;99.90;;;;;;5073118;28;20067;-72
2021/04/02 00:47:11;;;;;;;16.58;7.93;;;5.20;99.90;;;;;;5074129;28;20048;-75
2021/04/02 00:49:37;;;;;;;15.68;8.32;;;5.10;99.90;;;;;;5073865;28;20025;-74
2021/04/02 00:52:02;;;;;;;15.57;8.30;;;5.00;99.90;;;;;;5074055;28;20051;-72
2021/04/02 00:54:28;;;;;;;12.90;8.07;;;4.90;99.90;;;;;;5071461;28;20547;-73
2021/04/02 00:56:54;;;;;;;18.65;9.70;;;4.90;99.90;;;;;;5071666;28;20020;-76
2021/04/02 00:59:20;;;;;;;13.75;8.27;;;4.90;99.90;;;;;;5069238;28;20388;-73
2021/04/02 01:01:48;;;;;;;16.17;8.23;;;4.80;99.90;;;;;;5071285;28;20016;-73
2021/04/02 01:04:17;;;;;;;21.00;8.95;;;4.80;99.90;;;;;;5073456;28;20028;-73
2021/04/02 01:06:46;;;;;;;12.63;8.48;;;4.80;99.90;;;;;;5082817;28;20032;-76
2021/04/02 01:09:12;;;;;;;16.42;8.43;;;4.80;99.90;;;;;;5080269;28;20074;-74
2021/04/02 01:11:37;;;;;;;17.75;8.82;;;4.80;99.90;;;;;;5081203;28;20013;-72
2021/04/02 01:14:03;;;;;;;15.02;8.82;;;4.80;99.90;;;;;;5076728;28;20024;-73
2021/04/02 01:16:33;;;;;;;17.38;9.20;;;4.80;99.90;;;;;;5074874;28;20476;-71
2021/04/02 01:19:17;;;;;;;16.05;8.65;;;4.80;99.90;;;;;;5051826;28;20028;-72
2021/04/02 01:21:45;;;;;;;23.08;9.40;;;4.80;99.90;;;;;;5084264;28;20028;-73
2021/04/02 01:24:23;;;;;;;17.52;9.27;;;4.80;99.90;;;;;;5073862;28;20590;-73
2021/04/02 01:27:14;;;;;;;17.48;10.50;;;4.70;99.90;;;;;;5080192;28;20052;-74
2021/04/02 01:29:54;;;;;;;18.48;9.05;;;4.60;99.90;;;;;;5060848;28;20093;-74
2021/04/02 01:32:28;;;;;;;16.75;9.27;;;4.60;99.90;;;;;;5067803;28;20130;-71
2021/04/02 01:35:16;;;;;;;22.13;10.02;;;4.60;99.90;;;;;;5073048;28;20458;-72
2021/04/02 01:38:05;;;;;;;12.38;8.80;;;4.60;99.90;;;;;;5072722;28;20112;-74
2021/04/02 01:40:35;;;;;;;14.60;9.10;;;4.50;99.90;;;;;;5059925;28;20400;-73
2021/04/02 01:43:05;;;;;;;15.60;8.65;;;4.50;99.90;;;;;;5064528;28;20536;-73
2021/04/02 01:45:33;;;;;;;13.25;8.32;;;4.40;99.90;;;;;;5072935;28;20082;-73
2021/04/02 01:48:01;;;;;;;15.90;8.48;;;4.50;99.90;;;;;;5075957;28;20021;-72
2021/04/02 01:50:27;;;;;;;13.90;8.60;;;4.50;99.90;;;;;;5084609;28;20021;-73
2021/04/02 01:52:53;;;;;;;13.00;8.38;;;4.50;99.90;;;;;;5073199;28;20028;-73
2021/04/02 01:55:19;;;;;;;17.77;8.00;;;4.50;99.90;;;;;;5072406;28;20595;-74
2021/04/02 01:57:47;;;;;;;11.98;8.73;;;4.50;99.90;;;;;;5057228;28;20028;-74
2021/04/02 02:00:27;;;;;;;16.20;8.90;;;4.50;99.90;;;;;;5073514;28;20056;-76
2021/04/02 02:02:58;;;;;;;14.23;8.30;;;4.50;99.90;;;;;;5072383;28;20104;-74
2021/04/02 02:05:29;;;;;;;13.82;8.40;;;4.50;99.90;;;;;;5072490;28;20121;-72
2021/04/02 02:07:58;;;;;;;16.92;7.65;;;4.50;99.90;;;;;;5071940;28;20036;-74
2021/04/02 02:10:26;;;;;;;14.93;8.10;;;4.50;99.90;;;;;;5075476;28;20032;-73
2021/04/02 02:12:53;;;;;;;11.63;7.35;;;4.50;99.90;;;;;;5058442;28;20066;-73
2021/04/02 02:15:19;;;;;;;14.88;7.50;;;4.50;99.90;;;;;;5067358;28;20056;-73
2021/04/02 02:17:56;;;;;;;15.07;7.88;;;4.40;99.90;;;;;;5072344;28;20029;-74
2021/04/02 02:20:23;;;;;;;8.82;7.15;;;4.40;99.90;;;;;;5072384;28;20103;-72
2021/04/02 02:22:48;;;;;;;14.48;7.15;;;4.40;99.90;;;;;;5074386;28;20024;-73
2021/04/02 02:25:14;;;;;;;17.27;8.07;;;4.40;99.90;;;;;;5057941;28;20091;-73
2021/04/02 02:27:40;;;;;;;9.32;7.15;;;4.40;99.90;;;;;;5070173;28;20027;-73
2021/04/02 02:30:21;;;;;;;18.58;7.90;;;4.40;99.90;;;;;;5070717;28;20054;-73
2021/04/02 02:32:48;;;;;;;13.10;7.18;;;4.40;99.90;;;;;;5063040;28;20051;-73
2021/04/02 02:35:14;;;;;;;10.35;7.50;;;4.30;99.90;;;;;;5057313;28;20028;-73
2021/04/02 02:37:41;;;;;;;13.70;8.32;;;4.30;99.90;;;;;;5065062;28;20033;-74
2021/04/02 02:40:15;;;;;;;11.07;6.60;;;4.30;99.90;;;;;;5058572;28;20025;-72
2021/04/02 02:42:41;;;;;;;14.27;7.25;;;4.30;99.90;;;;;;5067373;28;20059;-72
2021/04/02 02:45:10;;;;;;;12.52;7.45;;;4.20;99.90;;;;;;5070145;28;20310;-72
2021/04/02 02:47:36;;;;;;;13.48;8.85;;;4.20;99.90;;;;;;5067633;28;20056;-72
2021/04/02 02:50:09;;;;;;;12.02;7.50;;;4.20;99.90;;;;;;5068851;28;20067;-73
2021/04/02 02:52:36;;;;;;;14.98;7.72;;;4.20;99.90;;;;;;5070949;28;20039;-72
2021/04/02 02:55:03;;;;;;;10.27;8.13;;;4.20;99.90;;;;;;5069984;28;20042;-71
2021/04/02 02:57:31;;;;;;;14.68;7.25;;;4.20;99.90;;;;;;5068447;28;20024;-73
2021/04/02 02:59:58;;;;;;;15.70;7.72;;;4.20;99.90;;;;;;5070683;28;20036;-73
2021/04/02 03:02:25;;;;;;;16.88;8.38;;;4.30;99.90;;;;;;5070656;28;20101;-72
2021/04/02 03:04:59;;;;;;;7.95;7.25;;;4.30;99.90;;;;;;5068078;28;20029;-76
2021/04/02 03:07:26;;;;;;;15.52;10.60;;;4.20;99.90;;;;;;5070765;28;20021;-73
2021/04/02 03:09:55;;;;;;;13.68;8.30;;;4.30;99.90;;;;;;5071803;28;20020;-71
2021/04/02 03:12:22;;;;;;;13.70;8.18;;;4.20;99.90;;;;;;5068903;28;20060;-73
2021/04/02 03:14:50;;;;;;;12.00;8.18;;;4.30;99.90;;;;;;5071966;28;20044;-75
2021/04/02 03:17:16;;;;;;;11.77;7.70;;;4.20;99.90;;;;;;5058333;28;20074;-73
2021/04/02 03:19:43;;;;;;;15.65;8.38;;;4.30;99.90;;;;;;5071005;28;20020;-73
2021/04/02 03:22:09;;;;;;;9.00;8.10;;;4.30;99.90;;;;;;5073018;28;20029;-74
2021/04/02 03:24:39;;;;;;;12.10;8.70;;;4.30;99.90;;;;;;5063107;28;20051;-73
2021/04/02 03:27:06;;;;;;;15.38;8.77;;;4.30;99.90;;;;;;5069328;28;20028;-72
2021/04/02 03:29:32;;;;;;;9.57;8.02;;;4.30;99.90;;;;;;5072859;28;20017;-72
2021/04/02 03:32:01;;;;;;;10.32;8.88;;;4.30;99.90;;;;;;5073556;28;20070;-74
2021/04/02 03:34:28;;;;;;;12.57;8.82;;;4.30;99.90;;;;;;5054079;28;20037;-74
2021/04/02 03:36:58;;;;;;;17.60;9.55;;;4.30;99.90;;;;;;5058797;28;20035;-73
2021/04/02 03:39:28;;;;;;;12.88;9.20;;;4.30;99.90;;;;;;5072185;28;20021;-75
2021/04/02 03:41:57;;;;;;;13.15;9.93;;;4.30;99.90;;;;;;5081071;28;20016;-74
2021/04/02 03:44:29;;;;;;;16.17;9.80;;;4.30;99.90;;;;;;5081033;28;20495;-72
2021/04/02 03:46:56;;;;;;;18.40;10.40;;;4.30;99.90;;;;;;5079684;28;20024;-75
2021/04/02 03:49:26;;;;;;;21.35;10.68;;;4.30;99.90;;;;;;5072921;28;20024;-73
2021/04/02 03:51:56;;;;;;;22.75;10.50;;;4.30;99.90;;;;;;5064556;28;20025;-75
2021/04/02 03:54:25;;;;;;;21.77;10.35;;;4.30;99.90;;;;;;5070578;28;20028;-74
2021/04/02 03:56:54;;;;;;;19.23;10.70;;;4.30;99.90;;;;;;5064127;28;20070;-73
2021/04/02 03:59:30;;;;;;;20.23;10.27;;;4.30;99.90;;;;;;5069934;28;20116;-73
2021/04/02 04:01:56;;;;;;;30.05;11.65;;;4.30;99.90;;;;;;5062226;28;20032;-75
2021/04/02 04:04:25;;;;;;;22.00;11.15;;;4.30;99.90;;;;;;5077057;28;20680;-73
2021/04/02 04:06:58;;;;;;;17.27;11.13;;;4.40;99.90;;;;;;5077053;28;20029;-73
2021/04/02 04:09:26;;;;;;;15.68;11.18;;;4.40;99.90;;;;;;5070613;28;20487;-72
2021/04/02 04:11:53;;;;;;;17.98;10.82;;;4.40;99.90;;;;;;5056514;28;20013;-76
2021/04/02 04:14:20;;;;;;;21.05;11.38;;;4.40;99.90;;;;;;5070004;28;20048;-71
2021/04/02 04:16:48;;;;;;;17.70;10.35;;;4.40;99.90;;;;;;5069093;28;20023;-74
2021/04/02 04:19:16;;;;;;;18.08;10.77;;;4.40;99.90;;;;;;5066139;28;20672;-75
2021/04/02 04:21:45;;;;;;;22.13;10.88;;;4.40;99.90;;;;;;5069172;28;20024;-72
2021/04/02 04:24:22;;;;;;;17.40;10.43;;;4.40;99.90;;;;;;5066609;28;20029;-74
2021/04/02 04:26:51;;;;;;;21.73;10.32;;;4.40;99.90;;;;;;5069065;28;20024;-74
2021/04/02 04:29:21;;;;;;;12.55;9.07;;;4.40;99.90;;;;;;5070230;28;20071;-73
2021/04/02 04:31:50;;;;;;;15.38;9.18;;;4.50;99.90;;;;;;5069332;28;20095;-71
2021/04/02 04:34:18;;;;;;;15.80;8.98;;;4.40;99.90;;;;;;5069918;28;20056;-73
2021/04/02 04:36:45;;;;;;;19.88;10.68;;;4.50;99.90;;;;;;5059094;28;20520;-75
2021/04/02 04:39:12;;;;;;;19.27;8.77;;;4.50;99.90;;;;;;5068142;28;20115;-74
2021/04/02 04:41:39;;;;;;;19.73;9.25;;;4.50;99.90;;;;;;5070295;28;20024;-73
2021/04/02 04:44:06;;;;;;;18.08;9.45;;;4.50;99.90;;;;;;5070088;28;20488;-74
2021/04/02 04:46:32;;;;;;;17.13;9.43;;;4.50;99.90;;;;;;5068762;28;20860;-74
2021/04/02 04:48:59;;;;;;;18.33;9.38;;;4.50;99.90;;;;;;5068478;28;20020;-72
2021/04/02 04:51:29;;;;;;;20.45;10.30;;;4.50;99.90;;;;;;5069496;28;20074;-75
2021/04/02 04:53:58;;;;;;;17.70;9.45;;;4.50;99.90;;;;;;5070164;28;20028;-74
2021/04/02 04:56:27;;;;;;;20.92;9.45;;;4.60;99.90;;;;;;5064723;28;20083;-74
2021/04/02 04:58:56;;;;;;;19.65;9.05;;;4.60;99.90;;;;;;5070959;28;20024;-74
2021/04/02 05:01:25;;;;;;;15.38;8.75;;;4.60;99.90;;;;;;5067493;28;20678;-73
2021/04/02 05:03:52;;;;;;;22.17;9.80;;;4.70;99.90;;;;;;5068759;28;20013;-77
2021/04/02 05:06:21;;;;;;;10.55;8.10;;;4.70;99.90;;;;;;5069427;28;20035;-72
2021/04/02 05:08:48;;;;;;;19.67;9.50;;;4.70;99.90;;;;;;5063080;28;20519;-73
2021/04/02 05:11:19;;;;;;;18.88;9.00;;;4.70;99.90;;;;;;5066702;28;20503;-72
2021/04/02 05:13:46;;;;;;;21.65;10.05;;;4.70;99.90;;;;;;5069163;28;20035;-72
2021/04/02 05:16:13;;;;;;;21.50;9.30;;;4.80;99.90;;;;;;5066970;28;20044;-74
2021/04/02 05:18:39;;;;;;;15.48;7.97;;;4.80;99.90;;;;;;5071248;28;20044;-72
2021/04/02 05:21:05;;;;;;;16.92;8.23;;;4.80;99.90;;;;;;5082413;28;20081;-74
2021/04/02 05:23:31;;;;;;;19.40;7.68;;;4.90;99.90;;;;;;5091971;28;20031;-75
2021/04/02 05:25:57;;;;;;;18.38;7.45;;;4.90;99.90;;;;;;5086019;28;20024;-72
2021/04/02 05:28:24;;;;;;;18.88;8.38;;;4.90;99.90;;;;;;5075442;28;20024;-73
2021/04/02 05:30:50;;;;;;;19.60;8.15;;;4.90;99.90;;;;;;5075716;28;20056;-70
2021/04/02 05:33:20;;;;;;;18.80;7.82;;;5.00;99.90;;;;;;5076518;28;20281;-74
2021/04/02 05:35:46;;;;;;;21.75;7.22;;;5.00;99.90;;;;;;5081683;28;20098;-74
2021/04/02 05:38:12;;;;;;;19.80;6.57;;;5.10;99.90;;;;;;5074663;28;20028;-74
2021/04/02 05:40:37;;;;;;;13.82;6.50;;;5.10;99.90;;;;;;5074876;28;20021;-73
2021/04/02 05:43:15;;;;;;;9.90;6.82;;;5.20;99.90;;;;;;5072125;28;20044;-71
2021/04/02 05:45:41;;;;;;;11.68;7.47;;;5.10;99.90;;;;;;5072790;28;20028;-72
2021/04/02 05:48:09;;;;;;;13.27;7.05;;;5.20;99.90;;;;;;5075720;28;20046;-74
2021/04/02 05:50:38;;;;;;;23.88;6.97;;;5.20;99.90;;;;;;5073485;28;20056;-70
2021/04/02 05:53:09;;;;;;;21.92;6.78;;;5.30;99.90;;;;;;5076789;28;20119;-73
2021/04/02 05:55:38;;;;;;;13.82;5.68;;;5.30;99.90;;;;;;5068329;28;20439;-73
2021/04/02 05:58:05;;;;;;;9.93;6.10;;;5.30;99.90;;;;;;5074317;28;20020;-72
2021/04/02 06:00:34;;;;;;;14.88;5.40;;;5.40;99.90;;;;;;5074146;28;20036;-74
2021/04/02 06:03:01;;;;;;;12.13;6.00;;;5.30;99.90;;;;;;5074714;28;20055;-73
2021/04/02 06:05:26;;;;;;;16.00;6.15;;;5.40;99.90;;;;;;5073707;28;20077;-73
2021/04/02 06:07:57;;;;;;;8.55;5.55;;;5.40;99.90;;;;;;5069951;28;20044;-79
2021/04/02 06:10:24;;;;;;;16.00;6.15;;;5.40;99.90;;;;;;5080115;28;20031;-77
2021/04/02 06:12:50;;;;;;;15.32;6.35;;;5.40;99.90;;;;;;5095429;28;20029;-77
2021/04/02 06:15:21;;;;;;;23.77;6.47;;;5.50;99.90;;;;;;5094707;28;20025;-77
2021/04/02 06:18:07;;;;;;;12.43;5.75;;;5.60;99.90;;;;;;5094793;28;20121;-75
2021/04/02 06:20:45;;;;;;;10.73;5.07;;;5.60;99.90;;;;;;5076879;28;20040;-78
2021/04/02 06:23:19;;;;;;;23.83;6.03;;;5.60;99.90;;;;;;5089502;28;20081;-79
2021/04/02 06:25:49;;;;;;;15.95;5.93;;;5.70;99.90;;;;;;5083491;28;20017;-79
2021/04/02 06:28:24;;;;;;;12.07;5.43;;;5.80;99.90;;;;;;5089786;28;20051;-74
2021/04/02 06:30:58;;;;;;;14.57;4.75;;;5.80;99.90;;;;;;5060333;28;20434;-75
2021/04/02 06:33:39;;;;;;;16.63;4.65;;;5.90;99.90;;;;;;5074166;28;20024;-74
2021/04/02 06:36:23;;;;;;;11.77;5.50;;;6.00;99.90;;;;;;5061556;28;20108;-74
2021/04/02 06:38:56;;;;;;;18.17;5.63;;;6.00;99.90;;;;;;5073632;28;20021;-74
2021/04/02 06:41:24;;;;;;;15.27;4.88;;;6.00;99.90;;;;;;5075633;28;20103;-71
2021/04/02 06:43:52;;;;;;;15.80;4.88;;;6.00;99.90;;;;;;5075855;28;20028;-76
2021/04/02 06:46:26;;;;;;;15.20;5.50;;;6.00;99.90;;;;;;5060374;28;20039;-74
2021/04/02 06:48:53;;;;;;;10.50;4.55;;;6.00;99.90;;;;;;5063836;28;20031;-76
2021/04/02 06:51:20;;;;;;;13.05;4.97;;;6.00;99.90;;;;;;5072839;28;20025;-79
2021/04/02 06:53:53;;;;;;;9.95;4.30;;;6.00;99.90;;;;;;5076516;28;20401;-74
2021/04/02 06:56:20;;;;;;;16.25;5.15;;;6.10;99.90;;;;;;5080411;28;20074;-74
2021/04/02 06:58:47;;;;;;;12.30;4.95;;;6.00;99.90;;;;;;5077626;28;20029;-75
2021/04/02 07:01:15;;;;;;;19.58;4.60;;;6.00;99.90;;;;;;5083949;28;20146;-78
2021/04/02 07:03:45;;;;;;;19.25;4.43;;;6.10;99.90;;;;;;5090206;28;20055;-76
2021/04/02 07:06:14;;;;;;;17.45;4.20;;;6.10;99.90;;;;;;5075738;28;20009;-76
2021/04/02 07:08:41;;;;;;;13.90;4.43;;;6.10;99.90;;;;;;5084591;28;20055;-75
2021/04/02 07:11:09;;;;;;;13.02;4.88;;;6.20;99.90;;;;;;5082668;28;20024;-75
2021/04/02 07:13:39;;;;;;;17.73;4.97;;;6.20;99.90;;;;;;5061431;28;20024;-73
2021/04/02 07:16:05;;;;;;;16.92;5.40;;;6.10;99.90;;;;;;5074972;28;20017;-73
2021/04/02 07:18:32;;;;;;;16.75;6.88;;;6.00;99.90;;;;;;5073177;28;20113;-75
2021/04/02 07:20:58;;;;;;;12.02;5.63;;;6.00;99.90;;;;;;5075821;28;20033;-75
2021/04/02 07:23:27;;;;;;;18.10;4.60;;;6.10;99.90;;;;;;5074231;28;20362;-73
2021/04/02 07:25:55;;;;;;;15.57;4.47;;;6.10;99.90;;;;;;5061735;28;20017;-73
2021/04/02 07:28:24;;;;;;;19.55;4.97;;;6.00;99.90;;;;;;5077210;28;20046;-73
2021/04/02 07:30:54;;;;;;;16.02;5.78;;;6.10;99.90;;;;;;5079474;28;20019;-75
2021/04/02 07:33:20;;;;;;;18.67;5.22;;;6.10;99.90;;;;;;5077826;28;20017;-74
2021/04/02 07:35:58;;;;;;;11.32;4.40;;;6.10;99.90;;;;;;5080691;28;20048;-76
2021/04/02 07:38:30;;;;;;;14.95;5.05;;;6.20;99.90;;;;;;5081115;28;20044;-76
2021/04/02 07:40:56;;;;;;;17.02;5.07;;;6.10;99.90;;;;;;5082740;28;20032;-75
2021/04/02 07:43:28;;;;;;;19.48;4.60;;;6.20;99.90;;;;;;5087871;28;20025;-75
2021/04/02 07:46:25;;;;;;;12.45;4.93;;;6.20;99.90;;;;;;5083508;28;20017;-78
2021/04/02 07:48:59;;;;;;;7.97;4.03;;;6.30;99.90;;;;;;5083613;28;20040;-76
2021/04/02 07:51:46;;;;;;;13.23;3.75;;;6.40;99.90;;;;;;5078898;28;20666;-74
2021/04/02 07:54:19;;;;;;;16.75;4.47;;;6.50;99.90;;;;;;5087008;28;20016;-76
2021/04/02 07:57:02;;;;;;;14.75;3.80;;;6.50;99.90;;;;;;5086116;28;20074;-78
2021/04/02 07:59:42;;;;;;;9.27;3.55;;;6.60;99.90;;;;;;5077044;28;20484;-73
2021/04/02 08:02:12;;;;;;;18.80;3.80;;;6.60;99.90;;;;;;5074993;28;20028;-74
2021/04/02 08:04:55;;;;;;;9.18;2.45;;;6.70;99.90;;;;;;5076123;28;20091;-73
2021/04/02 08:07:32;;;;;;;12.63;2.60;;;6.70;99.90;;;;;;5061804;28;20021;-75
2021/04/02 08:10:00;;;;;;;10.63;2.42;;;6.70;99.90;;;;;;5072224;28;20104;-76
2021/04/02 08:12:29;;;;;;;12.52;2.50;;;6.70;99.90;;;;;;5074288;28;20495;-75
2021/04/02 08:14:57;;;;;;;7.03;2.47;;;6.80;99.90;;;;;;5071530;28;20062;-76
2021/04/02 08:17:28;;;;;;;8.30;2.53;;;6.90;99.90;;;;;;5072187;28;20029;-74
2021/04/02 08:20:13;;;;;;;9.45;2.70;;;6.80;99.90;;;;;;5073115;28;20085;-74
2021/04/02 08:22:40;;;;;;;10.77;3.25;;;6.70;99.90;;;;;;5075209;28;20024;-73
2021/04/02 08:25:09;;;;;;;13.25;2.40;;;6.70;99.90;;;;;;5075360;28;20029;-72
2021/04/02 08:27:36;;;;;;;12.88;2.63;;;6.70;99.90;;;;;;5077550;28;20036;-74
2021/04/02 08:30:04;;;;;;;10.93;3.08;;;6.70;99.90;;;;;;5078074;28;20039;-75
2021/04/02 08:32:39;;;;;;;12.40;2.50;;;6.70;99.90;;;;;;5073073;28;20519;-73
2021/04/02 08:35:07;;;;;;;6.70;2.45;;;6.70;99.90;;;;;;5072350;28;20083;-72
2021/04/02 08:37:33;;;;;;;12.95;2.70;;;6.70;99.90;;;;;;5071771;28;20041;-72
2021/04/02 08:40:01;;;;;;;13.75;2.97;;;6.70;99.90;;;;;;5069294;28;20021;-75
2021/04/02 08:42:30;;;;;;;11.88;2.20;;;6.70;99.90;;;;;;5076025;28;20013;-74
2021/04/02 08:45:04;;;;;;;12.95;3.47;;;6.70;99.90;;;;;;5077754;28;20029;-73
2021/04/02 08:47:31;;;;;;;12.55;2.20;;;6.70;99.90;;;;;;5078142;28;20102;-73
2021/04/02 08:49:56;;;;;;;14.60;2.78;;;6.70;99.90;;;;;;5075685;28;20080;-74
2021/04/02 08:52:27;;;;;;;10.25;3.30;;;6.70;99.90;;;;;;5071966;28;20460;-73
2021/04/02 08:54:58;;;;;;;7.82;2.05;;;6.70;99.90;;;;;;5073950;28;20031;-73
2021/04/02 08:57:27;;;;;;;12.05;2.78;;;6.70;99.90;;;;;;5075099;28;20016;-72
2021/04/02 08:59:54;;;;;;;9.55;2.53;;;6.70;99.90;;;;;;5076393;28;20027;-72
2021/04/02 09:02:21;;;;;;;6.65;2.22;;;6.70;99.90;;;;;;5077365;28;20044;-70
2021/04/02 09:04:48;;;;;;;7.88;2.13;;;6.60;99.90;;;;;;5073797;28;20025;-74
2021/04/02 09:07:14;;;;;;;10.35;2.95;;;6.70;99.90;;;;;;5067636;28;20020;-75
2021/04/02 09:09:46;;;;;;;13.77;2.28;;;6.80;99.90;;;;;;5062835;28;20116;-76
2021/04/02 09:12:17;;;;;;;10.20;2.65;;;7.00;99.90;;;;;;5075815;28;20016;-73
2021/04/02 09:14:53;;;;;;;13.02;2.53;;;6.80;99.90;;;;;;5079163;28;20025;-78
2021/04/02 09:17:25;;;;;;;15.45;3.35;;;6.90;99.90;;;;;;5077271;28;20032;-75
2021/04/02 09:19:55;;;;;;;10.20;2.80;;;6.90;99.90;;;;;;5075207;28;20027;-74
2021/04/02 09:22:22;;;;;;;15.65;3.88;;;6.70;99.90;;;;;;5077783;28;20044;-73
2021/04/02 09:24:48;;;;;;;10.10;2.78;;;6.70;99.90;;;;;;5075231;28;20027;-73
2021/04/02 09:27:23;;;;;;;12.98;3.20;;;6.70;99.90;;;;;;5076113;28;20032;-76
2021/04/02 09:29:55;;;;;;;7.40;2.83;;;6.70;99.90;;;;;;5076390;28;20349;-75
2021/04/02 09:32:30;;;;;;;8.23;3.38;;;6.90;99.90;;;;;;5076897;28;20104;-74
2021/04/02 09:35:05;;;;;;;12.98;3.28;;;6.90;99.90;;;;;;5075478;28;20101;-73
2021/04/02 09:37:32;;;;;;;10.13;3.72;;;6.90;99.90;;;;;;5064302;28;20020;-77
2021/04/02 09:40:08;;;;;;;7.88;3.13;;;6.90;99.90;;;;;;5074947;28;20021;-74
2021/04/02 09:42:38;;;;;;;11.65;3.00;;;6.90;99.90;;;;;;5061802;28;20084;-77
2021/04/02 09:45:06;;;;;;;6.53;2.80;;;6.90;99.90;;;;;;5073221;28;20029;-76
2021/04/02 09:47:46;;;;;;;10.30;3.08;;;6.90;99.90;;;;;;5074393;28;20060;-78
2021/04/02 09:50:13;;;;;;;10.65;2.67;;;7.10;99.90;;;;;;5076955;28;20024;-75
2021/04/02 09:52:40;;;;;;;9.93;2.72;;;7.20;99.90;;;;;;5075393;28;20028;-76
2021/04/02 09:55:07;;;;;;;13.43;3.58;;;7.10;99.90;;;;;;5074609;28;20063;-72
2021/04/02 09:57:33;;;;;;;13.20;2.25;;;7.20;99.90;;;;;;5058285;28;20550;-73
2021/04/02 09:59:58;;;;;;;13.10;2.50;;;7.00;99.90;;;;;;5055162;28;20033;-76
2021/04/02 10:02:24;;;;;;;12.82;2.70;;;7.10;99.90;;;;;;5069629;28;20025;-74
2021/04/02 10:04:50;;;;;;;12.70;3.20;;;7.00;99.90;;;;;;5075191;28;20380;-73
2021/04/02 10:07:16;;;;;;;21.02;3.95;;;7.00;99.90;;;;;;5073912;28;20024;-75
2021/04/02 10:09:41;;;;;;;17.55;3.88;;;7.00;99.90;;;;;;5074837;28;20020;-76
2021/04/02 10:12:07;;;;;;;11.48;3.30;;;6.90;99.90;;;;;;5074944;28;20531;-72
2021/04/02 10:14:33;;;;;;;10.93;3.50;;;7.10;99.90;;;;;;5074371;28;20024;-78
2021/04/02 10:16:59;;;;;;;12.38;3.25;;;7.20;99.90;;;;;;5073818;28;20031;-73
2021/04/02 10:19:24;;;;;;;13.02;3.50;;;7.30;99.90;;;;;;5073737;28;20025;-75
2021/04/02 10:21:50;;;;;;;13.35;4.20;;;7.20;99.90;;;;;;5066857;28;20162;-74
2021/04/02 10:24:15;;;;;;;14.60;4.53;;;7.10;99.90;;;;;;5053573;28;20048;-76
2021/04/02 10:26:43;;;;;;;15.95;3.92;;;7.20;99.90;;;;;;5069555;28;20021;-75
2021/04/02 10:29:09;;;;;;;15.75;3.42;;;7.20;99.90;;;;;;5073113;28;20032;-72
2021/04/02 10:31:35;;;;;;;20.23;3.22;;;7.40;99.90;;;;;;5071039;28;20024;-74
2021/04/02 10:34:01;;;;;;;8.70;2.42;;;7.20;99.90;;;;;;5072710;28;20016;-74
2021/04/02 10:36:26;;;;;;;18.92;3.15;;;7.20;99.90;;;;;;5059874;28;20438;-75
2021/04/02 10:38:52;;;;;;;8.23;2.58;;;7.30;99.90;;;;;;5072084;28;20024;-75
2021/04/02 10:41:18;;;;;;;14.93;2.85;;;7.30;99.90;;;;;;5073302;28;20365;-74
2021/04/02 10:43:43;;;;;;;7.93;2.20;;;7.30;99.90;;;;;;5071751;28;20267;-74
2021/04/02 10:46:09;;;;;;;8.38;2.05;;;7.20;99.90;;;;;;5075268;28;20104;-75
2021/04/02 10:48:35;;;;;;;5.85;2.05;;;7.30;99.90;;;;;;5074091;28;20492;-76
2021/04/02 10:51:03;;;;;;;10.90;2.40;;;7.20;99.90;;;;;;5073914;28;20035;-76
2021/04/02 10:53:29;;;;;;;21.17;2.90;;;7.30;99.90;;;;;;5079156;28;20072;-77
2021/04/02 10:56:00;;;;;;;10.95;2.55;;;7.50;99.90;;;;;;5075588;28;20047;-77
2021/04/02 10:58:26;;;;;;;5.85;2.58;;;7.40;99.90;;;;;;5075992;28;20085;-77
2021/04/02 11:00:52;;;;;;;9.75;2.22;;;7.40;99.90;;;;;;5077420;28;20017;-76
2021/04/02 11:03:17;;;;;;;14.20;2.65;;;7.50;99.90;;;;;;5076934;28;20025;-74
2021/04/02 11:05:43;;;;;;;12.90;2.92;;;7.70;99.90;;;;;;5063993;28;20021;-78
2021/04/02 11:08:09;;;;;;;13.82;3.30;;;7.60;99.90;;;;;;5072560;28;20025;-77
2021/04/02 11:10:34;;;;;;;13.38;3.80;;;7.70;99.90;;;;;;5076059;28;20021;-75
2021/04/02 11:13:00;;;;;;;12.65;4.55;;;7.90;99.90;;;;;;5058775;28;20089;-73
2021/04/02 11:15:26;;;;;;;12.88;4.68;;;7.60;99.90;;;;;;5075915;28;20033;-75
2021/04/02 11:17:52;;;;;;;10.15;3.88;;;7.50;99.90;;;;;;5074987;28;20025;-75
2021/04/02 11:20:20;;;;;;;19.15;5.35;;;7.50;99.90;;;;;;5074635;28;20031;-77
2021/04/02 11:22:47;;;;;;;16.38;4.75;;;7.60;99.90;;;;;;5062644;28;20036;-74
2021/04/02 11:25:14;;;;;;;11.95;4.07;;;7.60;99.90;;;;;;5074961;28;20024;-76
2021/04/02 11:27:40;;;;;;;15.45;4.68;;;7.70;99.90;;;;;;5072205;28;20031;-76
2021/04/02 11:30:10;;;;;;;13.68;4.70;;;7.60;99.90;;;;;;5075500;28;20150;-76
2021/04/02 11:32:35;;;;;;;14.52;4.80;;;7.70;99.90;;;;;;5075219;28;20025;-76
2021/04/02 11:35:01;;;;;;;11.07;4.85;;;7.90;99.90;;;;;;5078298;28;20028;-78
2021/04/02 11:37:29;;;;;;;13.10;4.25;;;7.90;99.90;;;;;;5077227;28;20025;-76
2021/04/02 11:39:55;;;;;;;10.82;3.53;;;7.70;99.90;;;;;;5063886;28;20021;-76
2021/04/02 11:42:20;;;;;;;19.92;5.03;;;7.70;99.90;;;;;;5068296;28;20085;-76
2021/04/02 11:44:46;;;;;;;17.88;3.88;;;7.80;99.90;;;;;;5069699;28;20059;-76
2021/04/02 11:47:12;;;;;;;14.75;3.70;;;7.80;99.90;;;;;;5071573;28;20032;-73
2021/04/02 11:49:38;;;;;;;11.55;3.55;;;7.60;99.90;;;;;;5075493;28;20025;-75
2021/04/02 11:52:06;;;;;;;12.40;3.53;;;7.60;99.90;;;;;;5074458;28;20032;-74
2021/04/02 11:54:33;;;;;;;11.57;3.60;;;7.50;99.90;;;;;;5054936;28;20020;-76
2021/04/02 11:56:58;;;;;;;19.33;3.13;;;7.70;99.90;;;;;;5068548;28;20028;-75
2021/04/02 11:59:24;;;;;;;14.02;2.90;;;7.80;99.90;;;;;;5074280;28;20039;-77
2021/04/02 12:01:51;;;;;;;12.90;3.42;;;7.90;99.90;;;;;;5074339;28;20443;-77
2021/04/02 12:04:16;;;;;;;11.55;3.53;;;7.90;99.90;;;;;;5075877;28;20017;-75
2021/04/02 12:06:43;;;;;;;18.00;3.47;;;8.00;99.90;;;;;;5076147;28;20012;-79
2021/04/02 12:09:11;;;;;;;10.60;2.70;;;7.90;99.90;;;;;;5074525;28;20142;-77
2021/04/02 12:11:39;;;;;;;16.70;3.35;;;8.10;99.90;;;;;;5075966;28;20118;-77
2021/04/02 12:14:07;;;;;;;13.98;2.70;;;8.10;99.90;;;;;;5076679;28;20029;-76
2021/04/02 12:16:37;;;;;;;13.15;2.53;;;8.20;99.90;;;;;;5074371;28;20021;-78
2021/04/02 12:19:04;;;;;;;10.27;2.95;;;8.20;99.90;;;;;;5076684;28;20017;-78
2021/04/02 12:21:32;;;;;;;11.40;2.78;;;8.40;99.90;;;;;;5070286;28;20036;-76
2021/04/02 12:23:58;;;;;;;10.82;3.42;;;8.20;99.90;;;;;;5074340;28;20024;-78
2021/04/02 12:26:25;;;;;;;10.82;2.80;;;8.10;99.90;;;;;;5073618;28;20032;-77
2021/04/02 12:28:51;;;;;;;15.57;3.30;;;7.80;99.90;;;;;;5064939;28;20024;-74
2021/04/02 12:31:18;;;;;;;17.42;3.28;;;7.90;99.90;;;;;;5077763;28;20029;-78
2021/04/02 12:33:44;;;;;;;14.15;3.63;;;8.00;99.90;;;;;;5077406;28;20099;-76
2021/04/02 12:36:11;;;;;;;14.43;4.10;;;8.20;99.90;;;;;;5076814;28;20887;-75
2021/04/02 12:38:37;;;;;;;13.85;3.22;;;8.10;99.90;;;;;;5075549;28;20036;-76
2021/04/02 12:41:03;;;;;;;21.48;3.75;;;8.10;99.90;;;;;;5075336;28;20268;-76
2021/04/02 12:43:30;;;;;;;10.77;3.67;;;8.00;99.90;;;;;;5075876;28;20017;-73
2021/04/02 12:45:56;;;;;;;10.63;2.92;;;8.00;99.90;;;;;;5074820;28;20013;-75
2021/04/02 12:48:26;;;;;;;14.35;3.78;;;8.00;99.90;;;;;;5063366;28;20055;-74
2021/04/02 12:50:51;;;;;;;7.97;3.08;;;8.00;99.90;;;;;;5075175;28;20028;-73
2021/04/02 12:53:17;;;;;;;7.50;2.53;;;8.10;99.90;;;;;;5074583;28;20032;-75
2021/04/02 12:55:43;;;;;;;12.27;2.95;;;8.00;99.90;;;;;;5080076;28;20029;-75